Terminal Aerodrome Forecast
Issued by NWS

Home | Current Version | Previous Version | Text Only | Print | Product List | Glossary On
Versions: 1 2 3 4 5 6 7 8 9 10 11 12 13 14 15 16 17 18 19 20 21 22 23 24 25 26 27 28 29 30 31 32 33 34 35 36 37
000
FTUS41 KBOX 041722
TAFBED
TAF
KBED 041722Z 0418/0518 07011KT P6SM BKN050
     FM042000 09013KT P6SM SCT250
     FM042300 09008KT P6SM FEW250
     FM050100 07004KT P6SM FEW250
     FM050300 00000KT P6SM FEW250
     FM050700 00000KT 2SM BR SKC
     FM051300 VRB03KT P6SM SKC=

USA.gov is the U.S. government's official web portal to all federal, state and local government web resources and services.